Time;durP1;ratioP1;P1;durP2;ratioP2;P2;SDS_P1;SDS_P2;PMS_P1;PMS_P2;Temp;Humidity;BMP_temperature;BMP_pressure;BME280_temperature;BME280_humidity;BME280_pressure;Samples;Min_cycle;Max_cycle;Signal;HPM_P1;HPM_P2
2021/09/29 00:01:45;;;;;;;4.22;2.90;;;;;;;14.49;64.69;97416.59;5010435;28;20041;-79
2021/09/29 00:04:11;;;;;;;3.25;2.83;;;;;;;14.47;65.16;97414.25;4988764;28;20575;-79
2021/09/29 00:06:36;;;;;;;3.80;3.10;;;;;;;14.50;65.18;97415.56;4984044;28;20040;-79
2021/09/29 00:09:02;;;;;;;3.00;2.70;;;;;;;14.54;65.48;97412.13;4990439;28;20117;-81
2021/09/29 00:11:28;;;;;;;11.45;3.17;;;;;;;14.61;65.50;97401.41;4993297;28;20105;-79
2021/09/29 00:13:53;;;;;;;4.07;2.67;;;;;;;14.65;65.38;97407.72;5009474;28;20033;-79
2021/09/29 00:16:18;;;;;;;3.55;3.03;;;;;;;14.66;65.52;97409.28;4992864;28;20029;-79
2021/09/29 00:18:44;;;;;;;3.22;2.90;;;;;;;14.70;65.26;97399.84;5009263;28;20386;-79
2021/09/29 00:21:09;;;;;;;4.78;3.78;;;;;;;14.72;65.49;97402.97;4978435;28;20070;-79
2021/09/29 00:23:35;;;;;;;3.72;3.42;;;;;;;14.74;65.31;97398.25;4957669;28;20508;-79
2021/09/29 00:26:00;;;;;;;3.55;2.83;;;;;;;14.75;65.41;97391.97;4973168;28;20042;-79
2021/09/29 00:28:25;;;;;;;4.13;3.05;;;;;;;14.83;64.95;97401.13;4973959;28;20030;-79
2021/09/29 00:31:01;;;;;;;4.32;3.40;;;;;;;14.84;64.17;97400.06;4990457;28;20588;-79
2021/09/29 00:33:26;;;;;;;4.75;3.90;;;;;;;14.90;64.00;97395.59;4989868;28;20064;-79
2021/09/29 00:35:51;;;;;;;4.63;3.65;;;;;;;14.89;63.92;97399.25;4972848;28;20085;-81
2021/09/29 00:38:17;;;;;;;4.22;3.40;;;;;;;14.80;63.85;97396.41;4989464;28;20530;-80
2021/09/29 00:40:42;;;;;;;8.60;4.45;;;;;;;14.92;63.40;97402.13;4973440;28;20026;-79
2021/09/29 00:43:08;;;;;;;4.38;3.42;;;;;;;14.83;63.57;97398.50;4989165;28;20482;-81
2021/09/29 00:45:34;;;;;;;5.18;3.80;;;;;;;14.84;63.83;97397.47;4989088;28;20037;-79
2021/09/29 00:48:00;;;;;;;5.22;4.18;;;;;;;14.81;63.64;97392.75;4973123;28;20030;-79
2021/09/29 00:50:25;;;;;;;5.13;3.45;;;;;;;14.81;63.71;97391.97;4973322;28;20406;-79
2021/09/29 00:52:51;;;;;;;4.95;3.65;;;;;;;14.76;64.43;97393.53;4973035;28;20030;-79
2021/09/29 00:55:16;;;;;;;6.80;4.07;;;;;;;14.76;64.33;97395.38;4988684;28;20038;-79
2021/09/29 00:57:42;;;;;;;4.93;3.80;;;;;;;14.82;64.20;97402.16;4971953;28;20501;-81
2021/09/29 01:00:09;;;;;;;4.07;3.42;;;;;;;14.76;64.06;97398.00;4990278;28;20030;-79
2021/09/29 01:02:35;;;;;;;6.40;3.72;;;;;;;14.82;64.33;97391.66;4973271;28;20508;-79
2021/09/29 01:05:00;;;;;;;6.07;3.58;;;;;;;14.97;63.77;97396.88;4988233;28;20061;-79
2021/09/29 01:07:46;;;;;;;3.92;3.35;;;;;;;14.76;64.02;97401.38;4988812;28;20478;-79
2021/09/29 01:10:24;;;;;;;5.90;3.65;;;;;;;14.77;64.20;97396.94;4988999;28;20022;-79
2021/09/29 01:13:13;;;;;;;6.10;3.85;;;;;;;14.78;64.27;97396.66;4988449;28;20546;-79
2021/09/29 01:15:45;;;;;;;4.68;3.85;;;;;;;14.95;63.69;97401.59;4955385;28;20383;-79
2021/09/29 01:18:11;;;;;;;5.70;3.58;;;;;;;15.11;63.83;97399.75;4988955;28;20038;-79
2021/09/29 01:20:45;;;;;;;5.88;3.88;;;;;;;15.12;63.74;97401.28;5000435;28;20025;-80
2021/09/29 01:23:36;;;;;;;4.05;2.83;;;;;;;14.83;64.41;97397.72;5008960;28;20040;-79
2021/09/29 01:26:16;;;;;;;4.18;3.38;;;;;;;14.88;63.95;97392.47;5009255;28;20037;-79
2021/09/29 01:28:49;;;;;;;5.43;3.60;;;;;;;14.95;64.12;97398.97;5008450;28;20030;-78
2021/09/29 01:31:17;;;;;;;5.93;3.33;;;;;;;15.07;64.00;97396.06;5008100;28;20505;-79
2021/09/29 01:33:43;;;;;;;5.53;3.85;;;;;;;15.09;64.06;97399.19;4991778;28;20390;-79
2021/09/29 01:36:09;;;;;;;7.18;3.70;;;;;;;15.12;64.09;97403.13;5007692;28;20524;-79
2021/09/29 01:38:35;;;;;;;4.80;2.92;;;;;;;15.15;63.82;97398.13;4991491;28;20026;-79
2021/09/29 01:41:03;;;;;;;7.90;3.38;;;;;;;15.05;63.61;97400.78;5008071;28;20046;-79
2021/09/29 01:43:30;;;;;;;3.78;3.10;;;;;;;15.09;63.47;97404.44;5009386;28;20029;-80
2021/09/29 01:45:55;;;;;;;3.45;3.15;;;;;;;15.07;63.77;97390.81;5007636;28;20045;-79
2021/09/29 01:48:21;;;;;;;4.60;3.10;;;;;;;15.04;63.87;97393.97;5007969;28;20034;-79
2021/09/29 01:50:47;;;;;;;4.20;3.20;;;;;;;14.96;64.13;97389.31;4991682;28;20030;-79
2021/09/29 01:53:16;;;;;;;3.90;3.22;;;;;;;14.77;63.95;97392.50;4992334;28;20034;-79
2021/09/29 01:55:44;;;;;;;4.55;3.13;;;;;;;14.85;64.03;97398.22;5007661;28;20038;-79
2021/09/29 01:58:10;;;;;;;3.85;2.90;;;;;;;14.82;63.95;97393.50;5008348;28;20042;-79
2021/09/29 02:00:37;;;;;;;3.40;3.10;;;;;;;14.79;64.01;97395.63;4991766;28;20117;-79
2021/09/29 02:03:03;;;;;;;4.75;4.20;;;;;;;14.67;63.73;97383.84;4975502;28;20034;-79
2021/09/29 02:05:32;;;;;;;3.58;3.10;;;;;;;14.59;64.06;97388.56;4975216;28;20034;-79
2021/09/29 02:07:59;;;;;;;4.32;2.75;;;;;;;14.55;63.93;97389.34;4991862;28;20437;-79
2021/09/29 02:10:25;;;;;;;4.03;2.92;;;;;;;14.56;64.13;97385.66;4995690;28;20096;-79
2021/09/29 02:12:50;;;;;;;4.55;3.22;;;;;;;14.43;64.55;97387.00;5011725;28;20034;-79
2021/09/29 02:15:16;;;;;;;3.92;3.35;;;;;;;14.45;64.57;97382.28;4978214;28;20489;-79
2021/09/29 02:17:42;;;;;;;6.45;3.70;;;;;;;14.42;64.84;97385.44;4995307;28;20048;-79
2021/09/29 02:20:07;;;;;;;6.78;3.28;;;;;;;14.36;64.75;97397.75;5011488;28;20038;-78
2021/09/29 02:22:33;;;;;;;4.97;3.10;;;;;;;14.27;64.77;97394.06;4979030;28;20030;-79
2021/09/29 02:24:58;;;;;;;7.28;4.30;;;;;;;14.27;65.11;97380.97;5011164;28;20022;-79
2021/09/29 02:27:24;;;;;;;4.50;3.35;;;;;;;14.30;64.76;97383.06;4995312;28;20041;-79
2021/09/29 02:29:49;;;;;;;5.15;3.10;;;;;;;14.27;64.49;97390.69;4978859;28;20120;-78
2021/09/29 02:32:15;;;;;;;5.88;3.53;;;;;;;14.20;64.67;97383.84;4995038;28;20061;-79
2021/09/29 02:34:40;;;;;;;6.30;3.47;;;;;;;14.24;64.72;97394.63;5010871;28;20034;-79
2021/09/29 02:37:09;;;;;;;5.60;4.20;;;;;;;14.08;65.04;97395.66;4995051;28;20512;-79
2021/09/29 02:39:34;;;;;;;5.38;3.03;;;;;;;14.10;65.07;97391.72;4978623;28;20021;-78
2021/09/29 02:42:00;;;;;;;6.65;3.60;;;;;;;14.10;65.12;97393.56;4978537;28;20030;-79
2021/09/29 02:44:25;;;;;;;4.60;3.28;;;;;;;14.12;65.14;97401.94;4977944;28;20069;-79
2021/09/29 02:46:51;;;;;;;6.30;4.68;;;;;;;14.08;65.19;97400.88;4978741;28;20034;-79
2021/09/29 02:49:16;;;;;;;4.57;3.80;;;;;;;14.09;65.48;97402.47;4978489;28;20038;-79
2021/09/29 02:51:42;;;;;;;5.63;3.95;;;;;;;14.05;65.48;97403.00;5010470;28;20072;-79
2021/09/29 02:54:07;;;;;;;6.20;4.18;;;;;;;14.06;65.19;97406.38;5010352;28;20515;-78
2021/09/29 02:56:33;;;;;;;4.88;4.25;;;;;;;14.02;65.17;97408.75;4978872;28;20026;-78
2021/09/29 02:58:58;;;;;;;6.32;4.13;;;;;;;14.01;65.40;97411.63;4994283;28;20033;-78
2021/09/29 03:01:24;;;;;;;4.80;4.22;;;;;;;13.99;66.03;97418.94;4978124;28;20073;-78
2021/09/29 03:03:49;;;;;;;6.28;4.78;;;;;;;14.00;65.65;97418.69;4994105;28;20040;-80
2021/09/29 03:06:14;;;;;;;6.93;4.53;;;;;;;13.99;65.60;97414.50;4978283;28;20033;-81
2021/09/29 03:08:40;;;;;;;6.82;4.35;;;;;;;13.96;66.03;97420.25;4994182;28;20504;-80
2021/09/29 03:11:05;;;;;;;5.80;4.80;;;;;;;13.98;65.55;97417.38;4977782;28;20125;-80
2021/09/29 03:13:31;;;;;;;7.25;4.72;;;;;;;13.94;65.57;97417.09;4994268;28;20033;-79
2021/09/29 03:15:56;;;;;;;8.07;5.35;;;;;;;13.83;66.32;97432.00;4992947;28;20330;-79
2021/09/29 03:18:22;;;;;;;6.68;4.97;;;;;;;13.92;65.84;97423.66;4978022;28;20049;-78
2021/09/29 03:20:47;;;;;;;6.72;4.65;;;;;;;13.86;66.16;97414.97;5009949;28;20561;-79
2021/09/29 03:23:13;;;;;;;8.00;5.38;;;;;;;13.90;65.72;97425.72;5011927;28;20037;-79
2021/09/29 03:25:38;;;;;;;6.57;4.45;;;;;;;13.89;65.76;97424.94;4977128;28;20420;-80
2021/09/29 03:28:07;;;;;;;6.30;4.95;;;;;;;13.86;65.99;97422.84;4977335;28;20080;-79
2021/09/29 03:30:32;;;;;;;7.78;5.47;;;;;;;13.90;65.87;97431.75;4997607;28;20070;-79
2021/09/29 03:32:58;;;;;;;6.80;5.38;;;;;;;13.94;65.95;97430.19;4973921;28;20054;-79
2021/09/29 03:35:24;;;;;;;6.53;4.43;;;;;;;13.94;66.38;97426.78;4990214;28;20393;-79
2021/09/29 03:37:50;;;;;;;10.73;6.47;;;;;;;13.99;66.53;97432.03;4974520;28;20050;-79
2021/09/29 03:40:16;;;;;;;9.15;5.68;;;;;;;14.04;66.07;97427.59;4990530;28;20149;-79
2021/09/29 03:42:42;;;;;;;7.75;5.07;;;;;;;14.07;66.45;97422.88;5006936;28;20030;-78
2021/09/29 03:45:09;;;;;;;7.13;5.28;;;;;;;14.09;65.87;97418.19;4973502;28;20073;-80
2021/09/29 03:47:35;;;;;;;7.45;5.53;;;;;;;14.08;66.16;97422.59;4990239;28;20093;-79
2021/09/29 03:50:00;;;;;;;7.97;5.85;;;;;;;14.08;66.04;97412.13;4957705;28;20038;-79
2021/09/29 03:52:26;;;;;;;8.75;4.72;;;;;;;14.16;66.10;97421.31;4990598;28;20342;-79
2021/09/29 03:54:51;;;;;;;8.38;4.75;;;;;;;14.15;66.18;97417.13;4973602;28;20846;-78
2021/09/29 03:57:17;;;;;;;8.82;5.00;;;;;;;14.09;65.89;97407.72;4973935;28;20032;-81
2021/09/29 03:59:42;;;;;;;10.18;4.80;;;;;;;14.11;66.27;97413.47;4990148;28;20541;-79
2021/09/29 04:02:07;;;;;;;5.70;5.10;;;;;;;14.11;65.93;97411.63;4973844;28;20045;-79
2021/09/29 04:04:33;;;;;;;8.88;5.13;;;;;;;14.07;66.08;97410.59;4973487;28;20450;-79
2021/09/29 04:06:58;;;;;;;9.70;5.32;;;;;;;13.98;66.11;97414.75;4989983;28;20030;-79
2021/09/29 04:09:26;;;;;;;6.90;5.10;;;;;;;14.02;66.08;97413.97;4973762;28;20022;-79
2021/09/29 04:11:51;;;;;;;7.40;5.13;;;;;;;14.07;66.08;97417.63;4990318;28;20042;-81
2021/09/29 04:14:18;;;;;;;6.25;5.47;;;;;;;14.07;66.46;97418.44;4988891;28;20486;-79
2021/09/29 04:16:44;;;;;;;9.15;5.25;;;;;;;14.11;65.97;97418.69;4990946;28;20026;-81
2021/09/29 04:19:09;;;;;;;6.35;4.40;;;;;;;14.10;66.49;97420.50;5009037;28;20026;-79
2021/09/29 04:21:36;;;;;;;10.75;5.13;;;;;;;14.08;66.25;97419.22;4992904;28;20099;-81
2021/09/29 04:24:03;;;;;;;7.63;5.32;;;;;;;14.11;66.57;97421.31;4992094;28;20184;-81
2021/09/29 04:26:28;;;;;;;6.93;5.53;;;;;;;14.14;66.25;97411.09;5009037;28;20437;-79
2021/09/29 04:28:53;;;;;;;7.63;5.55;;;;;;;14.10;66.15;97407.41;4992939;28;20271;-79
2021/09/29 04:31:20;;;;;;;7.32;5.10;;;;;;;14.16;66.21;97414.25;4992394;28;20076;-80
2021/09/29 04:33:45;;;;;;;7.10;5.13;;;;;;;14.16;66.22;97421.31;5010043;28;20034;-79
2021/09/29 04:36:11;;;;;;;8.07;5.30;;;;;;;14.12;66.04;97417.63;4976735;28;20057;-81
2021/09/29 04:38:36;;;;;;;6.65;4.88;;;;;;;14.05;65.87;97421.31;4992507;28;20121;-81
2021/09/29 04:41:01;;;;;;;8.80;5.10;;;;;;;13.99;65.97;97427.56;4992559;28;20273;-79
2021/09/29 04:43:27;;;;;;;8.32;5.45;;;;;;;14.05;66.09;97434.41;4976547;28;20385;-80
2021/09/29 04:45:55;;;;;;;8.88;5.30;;;;;;;13.90;65.88;97441.44;4992126;28;20054;-80
2021/09/29 04:48:21;;;;;;;8.70;5.80;;;;;;;14.00;65.84;97430.97;5008814;28;20105;-79
2021/09/29 04:50:46;;;;;;;9.07;5.20;;;;;;;13.91;66.11;97438.56;4992028;28;20458;-79
2021/09/29 04:53:12;;;;;;;7.43;4.88;;;;;;;13.90;65.93;97436.19;5008949;28;20100;-79
2021/09/29 04:55:38;;;;;;;8.68;4.95;;;;;;;13.82;65.77;97427.03;5009663;28;20041;-80
2021/09/29 04:58:09;;;;;;;7.28;4.43;;;;;;;13.75;65.55;97432.50;4976202;28;20092;-81
2021/09/29 05:00:34;;;;;;;7.78;4.57;;;;;;;13.82;65.58;97437.50;4990483;28;20463;-78
2021/09/29 05:03:01;;;;;;;6.30;4.28;;;;;;;13.73;65.77;97431.22;4991072;28;20371;-79
2021/09/29 05:05:26;;;;;;;6.03;4.40;;;;;;;13.77;65.73;97437.47;5007264;28;20501;-81
2021/09/29 05:07:53;;;;;;;6.93;4.03;;;;;;;13.71;65.63;97435.88;5007524;28;20084;-78
2021/09/29 05:10:29;;;;;;;9.65;4.68;;;;;;;13.55;65.72;97441.06;5007529;28;20030;-79
2021/09/29 05:12:58;;;;;;;5.97;4.00;;;;;;;13.64;65.49;97443.97;4991083;28;20088;-79
2021/09/29 05:15:23;;;;;;;7.13;3.85;;;;;;;13.72;65.51;97440.88;4990208;28;20433;-81
2021/09/29 05:17:54;;;;;;;7.90;4.07;;;;;;;13.68;65.79;97445.84;4992304;28;20030;-79
2021/09/29 05:20:19;;;;;;;10.25;4.25;;;;;;;13.66;65.53;97442.69;5013722;28;20135;-80
2021/09/29 05:22:45;;;;;;;5.72;4.00;;;;;;;13.64;65.93;97444.78;5010653;28;20033;-81
2021/09/29 05:25:11;;;;;;;6.95;4.15;;;;;;;13.64;66.53;97450.00;5027653;28;20076;-81
2021/09/29 05:27:36;;;;;;;5.85;4.25;;;;;;;13.63;66.90;97450.28;5026830;28;20116;-79
2021/09/29 05:30:03;;;;;;;8.18;4.40;;;;;;;13.67;66.71;97441.66;5026829;28;20030;-79
2021/09/29 05:32:28;;;;;;;7.13;3.78;;;;;;;13.77;66.77;97445.34;4987893;28;20069;-79
2021/09/29 05:34:53;;;;;;;4.63;3.25;;;;;;;13.89;66.50;97439.88;4974792;28;20057;-79
2021/09/29 05:37:19;;;;;;;7.78;3.65;;;;;;;13.97;66.40;97448.00;4991682;28;20042;-79
2021/09/29 05:39:44;;;;;;;5.85;3.67;;;;;;;13.96;66.62;97433.31;5009403;28;20026;-79
2021/09/29 05:42:10;;;;;;;5.90;3.08;;;;;;;14.04;66.05;97434.66;4991010;28;20064;-78
2021/09/29 05:44:37;;;;;;;4.88;2.60;;;;;;;13.99;66.18;97439.88;5007578;28;20085;-81
2021/09/29 05:47:03;;;;;;;4.78;3.00;;;;;;;14.01;65.91;97438.56;4976042;28;20034;-79
2021/09/29 05:49:29;;;;;;;4.55;2.30;;;;;;;14.07;65.81;97430.72;4960405;28;20029;-79
2021/09/29 05:51:55;;;;;;;4.20;2.22;;;;;;;14.10;66.17;97440.69;4992164;28;20398;-79
2021/09/29 05:54:20;;;;;;;9.13;3.05;;;;;;;14.17;65.59;97435.97;5008069;28;20481;-79
2021/09/29 05:56:46;;;;;;;4.47;2.38;;;;;;;14.16;65.94;97434.41;5008633;28;20030;-79
2021/09/29 05:59:11;;;;;;;4.60;2.20;;;;;;;14.18;65.53;97442.78;4992381;28;20107;-80
2021/09/29 06:01:37;;;;;;;6.05;2.35;;;;;;;14.17;65.60;97438.59;4992113;28;20254;-79
2021/09/29 06:04:02;;;;;;;4.43;2.05;;;;;;;14.14;65.62;97433.91;4975654;28;20125;-79
2021/09/29 06:06:28;;;;;;;2.63;2.00;;;;;;;14.14;65.62;97436.50;4976073;28;20041;-79
2021/09/29 06:08:53;;;;;;;4.30;1.95;;;;;;;14.16;65.62;97440.44;5008370;28;20457;-79
2021/09/29 06:11:19;;;;;;;3.92;1.80;;;;;;;14.16;65.49;97434.41;4991682;28;20027;-79
2021/09/29 06:13:44;;;;;;;4.30;1.60;;;;;;;14.23;65.76;97440.19;4992541;28;20115;-79
2021/09/29 06:16:10;;;;;;;3.05;1.90;;;;;;;14.25;65.30;97440.69;5007986;28;20085;-79
2021/09/29 06:18:37;;;;;;;5.55;2.60;;;;;;;14.34;65.21;97446.19;4975372;28;20034;-79
2021/09/29 06:21:03;;;;;;;3.00;2.28;;;;;;;14.48;65.02;97441.22;5003206;28;20433;-79
2021/09/29 06:23:29;;;;;;;3.05;1.83;;;;;;;14.52;64.89;97442.28;5010984;28;20124;-79
2021/09/29 06:25:54;;;;;;;2.65;1.70;;;;;;;14.65;64.63;97447.03;4995230;28;20520;-79
2021/09/29 06:28:20;;;;;;;3.85;1.92;;;;;;;14.68;64.80;97446.47;5011362;28;20030;-79
2021/09/29 06:30:45;;;;;;;4.60;1.88;;;;;;;14.85;64.36;97440.19;4994895;28;20049;-79
2021/09/29 06:33:11;;;;;;;4.47;1.65;;;;;;;14.92;63.78;97444.06;4995104;28;20030;-79
2021/09/29 06:35:36;;;;;;;3.50;1.92;;;;;;;15.03;63.47;97442.25;4994393;28;20034;-81
2021/09/29 06:38:03;;;;;;;4.15;1.33;;;;;;;15.07;63.38;97438.03;5011124;28;20042;-79
2021/09/29 06:40:28;;;;;;;3.15;1.60;;;;;;;15.16;63.36;97435.63;4994944;28;20022;-79
2021/09/29 06:42:54;;;;;;;3.08;1.90;;;;;;;15.30;63.07;97446.34;4994939;28;20095;-79
2021/09/29 06:45:20;;;;;;;2.78;2.42;;;;;;;15.27;62.79;97437.19;5010584;28;20034;-79
2021/09/29 06:47:48;;;;;;;4.60;1.77;;;;;;;15.37;62.80;97439.00;5012386;28;20026;-79
2021/09/29 06:50:15;;;;;;;3.40;1.70;;;;;;;15.41;62.73;97432.16;4994761;28;20113;-80
2021/09/29 06:52:40;;;;;;;2.85;1.38;;;;;;;15.46;62.08;97434.75;5010783;28;20150;-82
2021/09/29 06:55:07;;;;;;;3.63;1.48;;;;;;;15.68;62.04;97436.22;4993456;28;20042;-81
2021/09/29 06:57:33;;;;;;;2.55;1.30;;;;;;;15.84;61.78;97440.34;5010466;28;20040;-82
2021/09/29 06:59:58;;;;;;;3.17;1.35;;;;;;;15.93;61.60;97437.94;4976024;28;20038;-82
2021/09/29 07:02:24;;;;;;;2.00;1.20;;;;;;;16.04;61.05;97426.31;4991898;28;20084;-82
2021/09/29 07:04:49;;;;;;;3.90;1.33;;;;;;;16.10;61.06;97437.56;4992917;28;20480;-79
2021/09/29 07:07:15;;;;;;;2.95;1.50;;;;;;;16.21;60.34;97446.97;5011259;28;20482;-79
2021/09/29 07:09:40;;;;;;;3.72;1.25;;;;;;;16.37;60.74;97445.00;4978242;28;20050;-82
2021/09/29 07:12:07;;;;;;;1.80;1.50;;;;;;;16.58;60.31;97445.59;5010646;28;20030;-79
2021/09/29 07:14:32;;;;;;;2.88;1.20;;;;;;;16.71;60.06;97436.31;4977404;28;20021;-79
2021/09/29 07:17:00;;;;;;;3.40;1.40;;;;;;;16.67;60.72;97443.97;4993777;28;20057;-80
2021/09/29 07:19:25;;;;;;;2.35;0.90;;;;;;;16.78;58.88;97442.00;4978906;28;20033;-79
2021/09/29 07:21:50;;;;;;;1.83;0.90;;;;;;;16.80;59.35;97444.38;4990558;28;20086;-79
2021/09/29 07:24:16;;;;;;;2.75;1.25;;;;;;;16.67;60.88;97443.97;4974773;28;20030;-79
2021/09/29 07:26:41;;;;;;;3.40;1.33;;;;;;;16.60;60.19;97451.38;4974812;28;20353;-79
2021/09/29 07:29:07;;;;;;;2.03;0.95;;;;;;;16.51;60.47;97450.41;4974315;28;20031;-79
2021/09/29 07:31:32;;;;;;;2.50;1.10;;;;;;;16.48;60.62;97445.69;4983399;28;20037;-79
2021/09/29 07:33:58;;;;;;;1.98;1.00;;;;;;;16.45;61.58;97448.84;4993601;28;20030;-79
2021/09/29 07:36:23;;;;;;;4.68;1.10;;;;;;;16.35;61.79;97448.94;4977688;28;20025;-80
2021/09/29 07:38:49;;;;;;;3.03;1.35;;;;;;;16.41;60.81;97445.22;4993312;28;20038;-79
2021/09/29 07:41:15;;;;;;;2.65;1.20;;;;;;;16.43;59.76;97446.53;4991914;28;20041;-79
2021/09/29 07:43:40;;;;;;;1.40;1.08;;;;;;;16.32;60.48;97454.78;5009819;28;20030;-79
2021/09/29 07:46:06;;;;;;;3.92;1.13;;;;;;;16.37;61.56;97457.34;4993559;28;20034;-79
2021/09/29 07:48:32;;;;;;;3.63;1.42;;;;;;;16.38;61.74;97458.91;4965695;28;20033;-80
2021/09/29 07:50:57;;;;;;;2.00;1.23;;;;;;;16.46;61.19;97463.59;4987500;28;20382;-79
2021/09/29 07:53:25;;;;;;;2.38;1.00;;;;;;;16.44;61.86;97457.81;5005639;28;20069;-79
2021/09/29 07:55:53;;;;;;;2.50;1.30;;;;;;;16.49;61.60;97465.66;5005795;28;20042;-79
2021/09/29 07:58:19;;;;;;;2.35;1.05;;;;;;;16.61;60.91;97465.31;4990827;28;20460;-79
2021/09/29 08:00:44;;;;;;;6.72;1.63;;;;;;;16.28;61.31;97463.19;4995470;28;20026;-81
2021/09/29 08:03:09;;;;;;;2.55;1.40;;;;;;;16.41;61.29;97458.38;4991519;28;20029;-80
2021/09/29 08:05:35;;;;;;;2.55;1.10;;;;;;;16.52;60.96;97465.13;4991413;28;20091;-82
2021/09/29 08:08:00;;;;;;;3.15;1.40;;;;;;;16.56;61.03;97460.88;5010192;28;20509;-79
2021/09/29 08:10:26;;;;;;;1.23;1.00;;;;;;;16.53;61.20;97461.41;4974310;28;20025;-79
2021/09/29 08:12:51;;;;;;;1.98;1.30;;;;;;;16.48;61.39;97456.19;5008797;28;20030;-79
2021/09/29 08:15:17;;;;;;;3.92;1.13;;;;;;;16.47;62.16;97457.28;5007521;28;20057;-79
2021/09/29 08:17:44;;;;;;;2.42;1.33;;;;;;;16.48;62.04;97464.09;5008675;28;20389;-79
2021/09/29 08:20:11;;;;;;;2.95;1.00;;;;;;;16.48;62.15;97458.81;4989412;28;20022;-79
2021/09/29 08:22:38;;;;;;;2.25;1.10;;;;;;;16.48;61.52;97459.63;4988911;28;20026;-79
2021/09/29 08:25:20;;;;;;;2.10;0.70;;;;;;;16.67;61.52;97457.09;4984679;28;20517;-79
2021/09/29 08:30:25;;;;;;;2.88;1.23;;;;;;;16.69;61.22;97458.66;5005758;28;20083;-79
2021/09/29 08:38:33;;;;;;;3.15;1.08;;;;;;;16.75;61.23;97455.72;4969648;28;20035;-79
2021/09/29 08:45:54;;;;;;;3.70;1.25;;;;;;;16.97;61.08;97454.50;5004745;28;20113;-80
2021/09/29 08:48:32;;;;;;;4.18;1.10;;;;;;;16.96;60.66;97456.31;4953755;28;20023;-79
2021/09/29 08:56:34;;;;;;;4.18;1.10;;;;;;;17.00;61.72;97454.72;5003197;28;20133;-79
2021/09/29 09:15:57;;;;;;;2.70;1.50;;;;;;;16.74;62.88;97453.34;4990291;28;20497;-79
2021/09/29 09:18:22;;;;;;;4.70;1.20;;;;;;;16.98;62.72;97446.31;5005552;28;20030;-79
2021/09/29 09:20:54;;;;;;;4.43;1.50;;;;;;;16.89;62.54;97444.56;4986866;28;20053;-80
2021/09/29 09:23:34;;;;;;;1.52;1.23;;;;;;;16.99;62.58;97447.88;5004124;28;20740;-79
2021/09/29 09:26:20;;;;;;;3.92;1.60;;;;;;;16.69;63.39;97448.13;4987855;28;20034;-79
2021/09/29 09:28:47;;;;;;;6.35;1.67;;;;;;;16.75;63.62;97437.31;4988376;28;20068;-79
2021/09/29 09:31:18;;;;;;;3.08;1.30;;;;;;;16.98;62.74;97441.06;4991989;28;20025;-80
2021/09/29 09:33:59;;;;;;;4.15;1.48;;;;;;;16.94;62.70;97434.78;4988019;28;20029;-79
2021/09/29 09:36:37;;;;;;;3.78;1.30;;;;;;;17.03;62.64;97425.22;4971634;28;20072;-80
2021/09/29 09:39:07;;;;;;;3.47;1.30;;;;;;;16.95;63.15;97438.97;5004119;28;20113;-79
2021/09/29 09:41:33;;;;;;;3.03;1.35;;;;;;;17.32;61.84;97434.88;4986754;28;20104;-79
2021/09/29 09:44:00;;;;;;;3.95;1.35;;;;;;;17.28;61.78;97433.13;4970908;28;20469;-80
2021/09/29 09:46:26;;;;;;;3.80;1.50;;;;;;;17.32;62.67;97434.09;4987994;28;20371;-81
2021/09/29 09:49:04;;;;;;;3.25;1.98;;;;;;;17.28;61.60;97426.00;5002889;28;20042;-78
2021/09/29 09:51:32;;;;;;;4.97;1.40;;;;;;;17.48;62.42;97418.91;4997793;28;20382;-79
2021/09/29 09:53:58;;;;;;;1.92;1.45;;;;;;;17.50;60.95;97419.44;5005795;28;20026;-79
2021/09/29 09:56:26;;;;;;;3.28;1.23;;;;;;;17.48;60.96;97416.28;4970350;28;20026;-79
2021/09/29 09:58:56;;;;;;;3.67;1.20;;;;;;;17.51;61.29;97418.34;4999078;28;20089;-79
2021/09/29 10:01:25;;;;;;;3.03;1.20;;;;;;;17.58;61.46;97419.56;4982277;28;20910;-81
2021/09/29 10:03:51;;;;;;;3.47;1.45;;;;;;;17.62;60.95;97421.66;5004538;28;20030;-81
2021/09/29 10:06:21;;;;;;;2.33;1.10;;;;;;;17.75;60.17;97424.34;5005281;28;20034;-78
2021/09/29 10:08:55;;;;;;;3.63;1.27;;;;;;;17.51;61.42;97411.25;4990455;28;20107;-78
2021/09/29 10:11:26;;;;;;;4.03;1.48;;;;;;;17.55;61.00;97406.19;5001190;28;20042;-79
2021/09/29 10:22:54;;;;;;;3.92;1.17;;;;;;;17.55;62.27;97414.09;4991527;28;20031;-79
2021/09/29 10:28:09;;;;;;;2.67;1.70;;;;;;;17.36;63.25;97414.06;4991966;28;20115;-78
2021/09/29 10:33:21;;;;;;;2.50;1.08;;;;;;;17.54;63.02;97397.50;5010307;28;20658;-78
2021/09/29 10:36:05;;;;;;;2.72;1.38;;;;;;;17.40;64.25;97407.16;5009218;28;20030;-79
2021/09/29 10:41:10;;;;;;;4.45;1.92;;;;;;;17.68;64.12;97416.00;5008389;28;20034;-79
2021/09/29 10:44:07;;;;;;;3.13;1.30;;;;;;;17.67;64.50;97421.59;4963141;28;20521;-80
2021/09/29 11:31:34;;;;;;;;;;;;;;;15.45;70.29;97454.16;5015282;28;20084;-78
2021/09/29 11:49:51;;;;;;;1.05;0.80;;;;;;;16.62;67.74;97448.47;4989038;28;20030;-77
2021/09/29 12:11:44;;;;;;;3.50;0.55;;;;;;;16.99;68.16;97442.63;4998652;28;20069;-77
2021/09/29 12:14:15;;;;;;;2.92;0.50;;;;;;;17.01;67.94;97443.13;5005443;28;20088;-78
2021/09/29 12:16:40;;;;;;;2.13;0.88;;;;;;;17.30;67.24;97458.06;4989780;28;20029;-78
2021/09/29 12:19:09;;;;;;;1.23;0.47;;;;;;;17.25;67.05;97458.13;4971797;28;20805;-78
2021/09/29 12:21:40;;;;;;;0.50;0.40;;;;;;;17.07;66.84;97464.09;5005730;28;20049;-78
2021/09/29 12:24:10;;;;;;;1.50;1.00;;;;;;;17.16;66.79;97467.72;5005027;28;20121;-78
2021/09/29 12:26:54;;;;;;;1.95;0.63;;;;;;;17.06;66.49;97470.44;5005950;28;20802;-78
2021/09/29 12:29:30;;;;;;;1.40;0.68;;;;;;;17.11;66.78;97470.41;5005648;28;20034;-79
2021/09/29 12:32:08;;;;;;;1.67;0.63;;;;;;;17.16;65.56;97472.97;5004320;28;20076;-81
2021/09/29 12:35:02;;;;;;;1.10;0.63;;;;;;;17.13;66.68;97484.06;4985582;28;20037;-78
2021/09/29 12:37:27;;;;;;;1.42;0.60;;;;;;;17.03;67.52;97474.41;4988585;28;20110;-78
2021/09/29 12:39:56;;;;;;;5.10;2.90;;;;;;;17.02;66.65;97472.84;4989282;28;20042;-78
2021/09/29 12:42:33;;;;;;;21.27;12.68;;;;;;;16.94;67.37;97474.22;4988827;28;20833;-80
2021/09/29 12:44:59;;;;;;;3.20;2.03;;;;;;;17.22;65.94;97475.28;5004876;28;20030;-79
2021/09/29 12:47:46;;;;;;;1.60;1.15;;;;;;;17.13;66.80;97476.16;5004089;28;20669;-81
2021/09/29 12:50:12;;;;;;;0.80;0.80;;;;;;;17.26;66.21;97485.25;5000549;28;20498;-81
2021/09/29 12:52:46;;;;;;;1.08;0.90;;;;;;;17.28;64.97;97491.78;5005031;28;20034;-81
2021/09/29 12:55:19;;;;;;;1.95;0.80;;;;;;;17.25;64.84;97488.94;4974036;28;20692;-80
2021/09/29 12:57:44;;;;;;;1.92;0.70;;;;;;;17.10;62.93;97485.41;5004371;28;20037;-80
2021/09/29 13:00:10;;;;;;;1.38;0.65;;;;;;;17.25;63.76;97487.06;4968078;28;20038;-81
2021/09/29 13:02:36;;;;;;;0.82;0.68;;;;;;;17.31;63.46;97499.13;4981220;28;20194;-80
2021/09/29 13:05:01;;;;;;;0.65;0.43;;;;;;;17.42;63.53;97499.78;4981967;28;20121;-81
2021/09/29 13:07:26;;;;;;;0.90;0.63;;;;;;;17.57;64.34;97506.75;4996355;28;20042;-81
2021/09/29 13:09:54;;;;;;;1.10;0.40;;;;;;;17.58;63.01;97497.75;4988776;28;20044;-80
2021/09/29 13:12:19;;;;;;;0.55;0.35;;;;;;;17.56;62.90;97498.06;5005305;28;20034;-80
2021/09/29 13:14:44;;;;;;;0.38;0.30;;;;;;;17.61;61.66;97499.84;5005051;28;20512;-80
2021/09/29 13:17:10;;;;;;;0.47;0.38;;;;;;;17.53;58.76;97521.50;4970499;28;20388;-80
2021/09/29 13:19:51;;;;;;;0.50;0.30;;;;;;;17.47;60.14;97514.75;5000365;28;20033;-80
2021/09/29 13:22:21;;;;;;;0.20;0.20;;;;;;;17.37;58.68;97529.56;4984086;28;20026;-80
2021/09/29 13:36:33;;;;;;;1.58;0.35;;;;;;;17.00;58.69;97538.91;4986329;28;20027;-80
2021/09/29 13:38:38;;;;;;;0.57;0.30;;;;;;;16.88;59.97;97549.00;5005744;28;20080;-80
2021/09/29 13:41:04;;;;;;;1.33;0.32;;;;;;;17.09;58.08;97556.72;5004755;28;20556;-80
2021/09/29 13:43:29;;;;;;;0.77;0.20;;;;;;;16.91;57.72;97550.28;5003382;28;20526;-80
2021/09/29 13:45:54;;;;;;;1.13;0.35;;;;;;;17.16;58.82;97557.19;4988063;28;20032;-80
2021/09/29 13:48:20;;;;;;;0.95;0.45;;;;;;;17.23;60.48;97555.00;5001528;28;20093;-80
2021/09/29 13:50:45;;;;;;;0.65;0.47;;;;;;;17.06;58.65;97552.00;4987914;28;20026;-81
2021/09/29 13:53:12;;;;;;;0.52;0.28;;;;;;;17.02;59.19;97551.78;5004316;28;20022;-80
2021/09/29 13:55:37;;;;;;;1.40;0.30;;;;;;;17.12;58.19;97564.03;5004802;28;20033;-80
2021/09/29 13:58:52;;;;;;;1.17;0.30;;;;;;;16.92;57.12;97563.16;5005440;28;20049;-80
2021/09/29 14:01:12;;;;;;;1.02;0.30;;;;;;;17.01;56.05;97566.75;4974089;28;20062;-79